Crystal Symphony — C6MY5 — position and weather

sailwx.info

Track history (hours):
 
Tides and Currents Weather Stations Pressure Air Temp Water Temp Dewpoint Dewpoint Depression Visibility Wind Speed Wind Dir Waves Ship Positions

Crystal Symphony

Operator: Crystal Cruises

Last reported at 2017-Feb-19 06:16 UTC. Time now 2017-Feb-27 16:03 UTC.
Position S 12°28' E 130°51'.
Warning: this ship's position is 8 days out of date.

Length 238 m; draft 8 m.

Type: Ship. MMSI: 309168000.

Date/timePositionNaut miles runAvg speedWind from/ knotsBaromVisibWave heightAir tempDewpointWater temp
2017-Feb-19 06:16S 12°28' E 130°51'0 0.0
2017-Feb-19 05:18S 12°28' E 130°51'0 0.0
2017-Feb-19 02:32S 12°28' E 130°51'0 0.0
2017-Feb-18 23:31S 12°28' E 130°51'0 0.1
2017-Feb-18 22:27S 12°28' E 130°51'  
2017-Feb-12 16:33S 25°31' E 153°31'1817.9
2017-Feb-12 15:33S 25°48' E 153°28'5217.4
2017-Feb-12 12:32S 26°40' E 153°15'1111.7
2017-Feb-12 11:34S 26°50' E 153°09'1615.5
2017-Feb-12 10:33S 27°03' E 153°18'1313.5
2017-Feb-12 09:33S 27°17' E 153°16'1110.8
2017-Feb-12 08:33S 27°25' E 153°08'4 3.7
2017-Feb-12 07:31S 27°27' E 153°04'0 0.0
2017-Feb-12 06:33S 27°27' E 153°04'0 0.0
2017-Feb-12 05:33S 27°27' E 153°04'0 0.0
2017-Feb-12 04:32S 27°27' E 153°04'0 0.0
2017-Feb-12 03:32S 27°27' E 153°04'0 0.0
2017-Feb-12 02:32S 27°27' E 153°04'0 0.0
2017-Feb-12 01:31S 27°27' E 153°04'0 0.0
2017-Feb-12 00:31S 27°27' E 153°04'0 0.0
2017-Feb-11 23:33S 27°27' E 153°04'0 0.0
2017-Feb-11 22:33S 27°26' E 153°04'0 0.0
2017-Feb-11 21:32S 27°27' E 153°04'0 0.0
2017-Feb-11 20:32S 27°27' E 153°04'2 1.9
2017-Feb-11 19:34S 27°27' E 153°06'8 8.2
2017-Feb-11 18:34S 27°20' E 153°12'1414.3
2017-Feb-11 17:33S 27°08' E 153°21'1615.5
2017-Feb-11 16:34S 26°55' E 153°12'1312.5
2017-Feb-11 15:33S 26°43' E 153°12'1211.8
2017-Feb-11 14:34S 26°46' E 153°25'1717.2
2017-Feb-11 13:33S 26°55' E 153°41'1616.0
2017-Feb-11 12:33S 27°11' E 153°47'1615.9
2017-Feb-11 11:33S 27°26' E 153°50'1515.4
2017-Feb-11 10:33S 27°42' E 153°52'1515.3
2017-Feb-11 09:33S 27°57' E 153°53'1515.4
2017-Feb-11 08:33S 28°12' E 153°54'1515.4
2017-Feb-11 07:34S 28°27' E 153°56'1515.3
2017-Feb-11 06:33S 28°43' E 153°56'1515.2
2017-Feb-11 05:33S 28°58' E 153°53'1615.5
2017-Feb-11 04:33S 29°13' E 153°50'13716.9
2017-Feb-10 20:29S 31°26' E 153°15'1718.9
2017-Feb-10 19:33S 31°43' E 153°09'2619.0
2017-Feb-10 18:12S 32°07' E 152°60'1218.7
2017-Feb-10 17:33S 32°19' E 152°55'1818.1
2017-Feb-10 16:33S 32°36' E 152°49'1817.8
2017-Feb-10 15:33S 32°49' E 152°34'1717.3
2017-Feb-10 14:33S 33°01' E 152°20'1817.8
2017-Feb-10 13:33S 33°14' E 152°05'1818.0
2017-Feb-10 12:32S 33°28' E 151°49'3316.5
2017-Feb-10 10:30S 33°51' E 151°20'  
Track history (hours):
 
Tides and Currents Weather Stations Pressure Air Temp Water Temp Dewpoint Dewpoint Depression Visibility Wind Speed Wind Dir Waves Ship Positions

Crystal Symphony

Operator: Crystal Cruises

Last reported at 2017-Feb-19 06:16 UTC. Time now 2017-Feb-27 16:03 UTC.
Position S 12°28' E 130°51'.
Warning: this ship's position is 8 days out of date.

Length 238 m; draft 8 m.

Type: Ship. MMSI: 309168000.

Date/timePositionNaut miles runAvg speedWind from/ knotsBaromVisibWave heightAir tempDewpointWater temp
2017-Feb-19 06:16S 12°28' E 130°51'0 0.0
2017-Feb-19 05:18S 12°28' E 130°51'0 0.0
2017-Feb-19 02:32S 12°28' E 130°51'0 0.0
2017-Feb-18 23:31S 12°28' E 130°51'0 0.1
2017-Feb-18 22:27S 12°28' E 130°51'  
2017-Feb-12 16:33S 25°31' E 153°31'1817.9
2017-Feb-12 15:33S 25°48' E 153°28'5217.4
2017-Feb-12 12:32S 26°40' E 153°15'1111.7
2017-Feb-12 11:34S 26°50' E 153°09'1615.5
2017-Feb-12 10:33S 27°03' E 153°18'1313.5
2017-Feb-12 09:33S 27°17' E 153°16'1110.8
2017-Feb-12 08:33S 27°25' E 153°08'4 3.7
2017-Feb-12 07:31S 27°27' E 153°04'0 0.0
2017-Feb-12 06:33S 27°27' E 153°04'0 0.0
2017-Feb-12 05:33S 27°27' E 153°04'0 0.0
2017-Feb-12 04:32S 27°27' E 153°04'0 0.0
2017-Feb-12 03:32S 27°27' E 153°04'0 0.0
2017-Feb-12 02:32S 27°27' E 153°04'0 0.0
2017-Feb-12 01:31S 27°27' E 153°04'0 0.0
2017-Feb-12 00:31S 27°27' E 153°04'0 0.0
2017-Feb-11 23:33S 27°27' E 153°04'0 0.0
2017-Feb-11 22:33S 27°26' E 153°04'0 0.0
2017-Feb-11 21:32S 27°27' E 153°04'0 0.0
2017-Feb-11 20:32S 27°27' E 153°04'2 1.9
2017-Feb-11 19:34S 27°27' E 153°06'8 8.2
2017-Feb-11 18:34S 27°20' E 153°12'1414.3
2017-Feb-11 17:33S 27°08' E 153°21'1615.5
2017-Feb-11 16:34S 26°55' E 153°12'1312.5
2017-Feb-11 15:33S 26°43' E 153°12'1211.8
2017-Feb-11 14:34S 26°46' E 153°25'1717.2
2017-Feb-11 13:33S 26°55' E 153°41'1616.0
2017-Feb-11 12:33S 27°11' E 153°47'1615.9
2017-Feb-11 11:33S 27°26' E 153°50'1515.4
2017-Feb-11 10:33S 27°42' E 153°52'1515.3
2017-Feb-11 09:33S 27°57' E 153°53'1515.4
2017-Feb-11 08:33S 28°12' E 153°54'1515.4
2017-Feb-11 07:34S 28°27' E 153°56'1515.3
2017-Feb-11 06:33S 28°43' E 153°56'1515.2
2017-Feb-11 05:33S 28°58' E 153°53'1615.5
2017-Feb-11 04:33S 29°13' E 153°50'13716.9
2017-Feb-10 20:29S 31°26' E 153°15'1718.9
2017-Feb-10 19:33S 31°43' E 153°09'2619.0
2017-Feb-10 18:12S 32°07' E 152°60'1218.7
2017-Feb-10 17:33S 32°19' E 152°55'1818.1
2017-Feb-10 16:33S 32°36' E 152°49'1817.8
2017-Feb-10 15:33S 32°49' E 152°34'1717.3
2017-Feb-10 14:33S 33°01' E 152°20'1817.8
2017-Feb-10 13:33S 33°14' E 152°05'1818.0
2017-Feb-10 12:32S 33°28' E 151°49'3316.5
2017-Feb-10 10:30S 33°51' E 151°20'  

Dump ship's entire track history